EW4365 Weather Reports


Display with metric or nautical units.
time (UTC)temp
F
wind
direction
speed
MPH
gust
MPH
rain 1hr
in
rain 24hr
in
rain mn
in
humidity
%
barometer
mb
20191207120214 19 351 0.0 0.0 0.00 0.00 0.00 90 1029.8
20191207114704 20 351 0.0 0.0 0.00 0.00 0.00 91 1030.0
20191207113208 20 351 0.0 0.0 0.00 0.00 0.00 90 1029.9
20191207111618 21 351 0.0 0.0 0.00 0.00 0.00 90 1029.7
20191207110119 21 351 0.0 0.0 0.00 0.00 0.00 90 1029.4
20191207104703 21 351 0.0 0.0 0.00 0.00 0.00 90 1029.4
20191207103123 21 351 0.0 0.0 0.00 0.00 0.00 90 1029.4
20191207101607 21 351 0.0 0.0 0.00 0.00 0.00 89 1029.4
20191207100055 21 351 0.0 0.0 0.00 0.00 0.00 89 1029.3
20191207094549 22 351 0.0 0.0 0.00 0.00 0.00 88 1029.1
20191207093120 22 351 0.0 0.0 0.00 0.00 0.00 88 1029.1
20191207091552 23 351 0.0 0.0 0.00 0.00 0.00 87 1029.2
20191207090034 24 351 0.0 0.0 0.00 0.00 0.00 88 1029.1
20191207084540 24 351 0.0 0.0 0.00 0.00 0.00 87 1029.0
20191207083053 24 351 0.0 0.0 0.00 0.00 0.00 86 1029.0
20191207081531 25 351 0.0 0.0 0.00 0.00 0.00 85 1028.8
20191207080100 25 355 0.0 0.0 0.00 0.00 0.00 86 1028.7
20191207074539 25 355 0.0 0.0 0.00 0.00 0.00 85 1028.7
20191207073029 25 355 0.0 0.0 0.00 0.00 0.00 84 1028.5
20191207071526 25 355 0.0 0.0 0.00 0.00 0.00 86 1028.2
20191207070014 25 355 0.0 0.0 0.00 0.00 0.00 86 1028.2
20191207064529 25 355 0.0 0.0 0.00 0.00 0.00 84 1028.1
20191207063009 26 355 0.0 0.0 0.00 0.00 0.00 85 1028.1
20191207061530 26 355 0.0 0.0 0.00 0.00 0.00 86 1028.1
20191207060009 26 355 0.0 0.0 0.00 0.00 0.00 85 1028.1
20191207054510 26 355 0.0 0.0 0.00 0.00 0.00 85 1028.1
20191207053247 27 355 0.0 0.0 0.00 0.00 0.00 84 1028.1
20191207051625 27 355 0.0 0.0 0.00 0.00 0.00 84 1027.9
20191207050206 27 355 0.0 0.0 0.00 0.00 0.00 84 1027.9
20191207044709 27 355 0.0 0.0 0.00 0.00 0.00 84 1027.9
20191207043142 28 355 0.0 0.0 0.00 0.00 0.00 85 1027.8
20191207041739 28 355 0.0 0.0 0.00 0.00 0.00 85 1027.7
20191207040114 28 355 0.0 0.0 0.00 0.00 0.00 85 1027.7
20191207034641 27 355 0.0 0.0 0.00 0.00 0.00 85 1027.8
20191207033143 27 355 0.0 0.0 0.00 0.00 0.00 85 1027.6
20191207031622 28 355 0.0 0.0 0.00 0.00 0.00 85 1027.4
20191207030131 28 355 0.0 0.0 0.00 0.00 0.00 84 1027.2
20191207024637 29 355 0.0 0.0 0.00 0.00 0.00 84 1027.2
20191207023120 28 355 0.0 0.0 0.00 0.00 0.00 83 1026.9
20191207021656 30 355 0.0 0.0 0.00 0.00 0.00 80 1026.9
20191207020115 30 355 0.0 0.0 0.00 0.00 0.00 80 1026.7
20191207014607 31 355 0.0 0.0 0.00 0.00 0.00 79 1026.6
20191207013111 31 355 0.0 0.0 0.00 0.00 0.00 80 1026.5
20191207011636 31 355 0.0 0.0 0.00 0.00 0.00 80 1026.3
20191207010115 31 355 0.0 0.0 0.00 0.00 0.00 79 1026.3
20191207004550 32 355 0.0 0.0 0.00 0.00 0.00 78 1026.2
20191207003028 32 355 0.0 0.0 0.00 0.00 0.00 78 1026.0
20191207001606 32 355 0.0 0.0 0.00 0.00 0.00 78 1025.9
20191207000038 33 355 0.0 0.0 0.00 0.00 0.00 77 1025.6
20191206234522 33 5 0.0 0.0 0.00 0.00 0.00 77 1025.3
20191206233020 33 342 0.0 0.0 0.00 0.00 0.00 77 1025.3
20191206231514 34 340 0.0 12.0 0.00 0.00 0.00 77 1025.2
20191206230027 34 337 9.0 12.0 0.00 0.00 0.00 76 1024.8
20191206224504 35 329 9.0 13.0 0.00 0.00 0.00 76 1024.2
20191206223008 35 340 0.0 0.0 0.00 0.00 0.00 76 1024.1
20191206221751 36 328 0.0 0.0 0.00 0.00 0.00 76 1024.1
20191206220150 36 335 0.0 0.0 0.00 0.00 0.00 76 1023.9
20191206214745 37 336 0.0 13.0 0.00 0.00 0.00 74 1023.6
20191206213134 39 346 11.0 17.0 0.00 0.00 0.00 71 1023.2
20191206211635 39 347 12.0 14.0 0.00 0.00 0.00 72 1022.7
20191206210108 39 333 12.0 18.0 0.00 0.00 0.00 71 1022.2
20191206204555 40 342 15.0 21.0 0.00 0.00 0.00 71 1021.9
20191206203102 40 355 16.0 23.0 0.00 0.00 0.00 73 1021.6
20191206201553 41 350 13.0 23.0 0.00 0.00 0.00 74 1021.3
20191206200130 41 315 15.0 22.0 0.00 0.00 0.00 73 1021.2
20191206194619 41 334 0.0 0.0 0.00 0.00 0.00 74 1020.9
20191206193122 40 321 10.0 14.0 0.00 0.00 0.00 78 1020.7
20191206191606 40 314 9.0 14.0 0.00 0.00 0.00 78 1020.5
20191206190056 40 325 10.0 17.0 0.00 0.00 0.00 79 1020.4
20191206184608 40 318 11.0 19.0 0.00 0.00 0.00 80 1020.3
20191206183046 40 339 14.0 21.0 0.00 0.00 0.00 81 1020.2
20191206181526 42 321 13.0 18.0 0.00 0.00 0.00 82 1020.1
20191206180112 43 321 13.0 16.0 0.00 0.00 0.00 81 1019.9
20191206174510 43 325 7.0 17.0 0.00 0.00 0.00 81 1019.8
20191206173004 43 320 11.0 16.0 0.00 0.00 0.00 80 1019.7
20191206171648 0 0.0 0.0 0.00 0.00 0.00